sensor_id;sensor_type;location;lat;lon;timestamp;temperature;humidity
6956;DHT22;50345;51.136;16.886;2023-08-30T00:01:39;15.90;99.90
6956;DHT22;50345;51.136;16.886;2023-08-30T00:04:05;15.80;99.90
6956;DHT22;50345;51.136;16.886;2023-08-30T00:06:30;15.90;99.90
6956;DHT22;50345;51.136;16.886;2023-08-30T00:08:57;15.90;99.90
6956;DHT22;50345;51.136;16.886;2023-08-30T00:11:24;15.80;99.90
6956;DHT22;50345;51.136;16.886;2023-08-30T00:13:49;15.80;99.90
6956;DHT22;50345;51.136;16.886;2023-08-30T00:16:15;15.70;99.90
6956;DHT22;50345;51.136;16.886;2023-08-30T00:18:42;15.70;99.90
6956;DHT22;50345;51.136;16.886;2023-08-30T00:21:09;15.60;99.90
6956;DHT22;50345;51.136;16.886;2023-08-30T00:23:35;15.60;99.90
6956;DHT22;50345;51.136;16.886;2023-08-30T00:26:01;15.60;99.90
6956;DHT22;50345;51.136;16.886;2023-08-30T00:28:26;15.60;99.90
6956;DHT22;50345;51.136;16.886;2023-08-30T00:30:55;15.60;99.90
6956;DHT22;50345;51.136;16.886;2023-08-30T00:33:21;15.60;99.90
6956;DHT22;50345;51.136;16.886;2023-08-30T00:35:46;15.60;99.90
6956;DHT22;50345;51.136;16.886;2023-08-30T00:38:20;15.60;99.90
6956;DHT22;50345;51.136;16.886;2023-08-30T00:40:45;15.60;99.90
6956;DHT22;50345;51.136;16.886;2023-08-30T00:43:11;15.60;99.90
6956;DHT22;50345;51.136;16.886;2023-08-30T00:45:39;15.70;99.90
6956;DHT22;50345;51.136;16.886;2023-08-30T00:48:06;15.70;99.90
6956;DHT22;50345;51.136;16.886;2023-08-30T00:50:32;15.70;99.90
6956;DHT22;50345;51.136;16.886;2023-08-30T00:52:59;15.70;99.90
6956;DHT22;50345;51.136;16.886;2023-08-30T00:55:25;15.70;99.90
6956;DHT22;50345;51.136;16.886;2023-08-30T00:57:51;15.70;99.90
6956;DHT22;50345;51.136;16.886;2023-08-30T01:00:16;15.70;99.90
6956;DHT22;50345;51.136;16.886;2023-08-30T01:02:42;15.60;99.90
6956;DHT22;50345;51.136;16.886;2023-08-30T01:05:08;15.60;99.90
6956;DHT22;50345;51.136;16.886;2023-08-30T01:07:35;15.60;99.90
6956;DHT22;50345;51.136;16.886;2023-08-30T01:10:00;15.70;99.90
6956;DHT22;50345;51.136;16.886;2023-08-30T01:12:39;15.70;99.90
6956;DHT22;50345;51.136;16.886;2023-08-30T01:15:11;15.70;99.90
6956;DHT22;50345;51.136;16.886;2023-08-30T01:17:40;15.70;99.90
6956;DHT22;50345;51.136;16.886;2023-08-30T01:20:07;15.70;99.90
6956;DHT22;50345;51.136;16.886;2023-08-30T01:28:30;15.60;99.90
6956;DHT22;50345;51.136;16.886;2023-08-30T01:30:58;15.60;99.90
6956;DHT22;50345;51.136;16.886;2023-08-30T01:33:24;15.50;99.90
6956;DHT22;50345;51.136;16.886;2023-08-30T01:35:56;15.50;99.90
6956;DHT22;50345;51.136;16.886;2023-08-30T01:38:23;15.40;99.90
6956;DHT22;50345;51.136;16.886;2023-08-30T01:40:51;15.40;99.90
6956;DHT22;50345;51.136;16.886;2023-08-30T01:43:18;15.30;99.90
6956;DHT22;50345;51.136;16.886;2023-08-30T01:45:44;15.30;99.90
6956;DHT22;50345;51.136;16.886;2023-08-30T01:48:13;15.30;99.90
6956;DHT22;50345;51.136;16.886;2023-08-30T01:50:40;15.30;99.90
6956;DHT22;50345;51.136;16.886;2023-08-30T01:53:07;15.30;99.90
6956;DHT22;50345;51.136;16.886;2023-08-30T01:55:34;15.30;99.90
6956;DHT22;50345;51.136;16.886;2023-08-30T01:58:00;15.30;99.90
6956;DHT22;50345;51.136;16.886;2023-08-30T02:00:26;15.30;99.90
6956;DHT22;50345;51.136;16.886;2023-08-30T02:02:52;15.40;99.90
6956;DHT22;50345;51.136;16.886;2023-08-30T02:05:17;15.40;99.90
6956;DHT22;50345;51.136;16.886;2023-08-30T02:07:57;15.40;99.90
6956;DHT22;50345;51.136;16.886;2023-08-30T02:10:27;15.40;99.90
6956;DHT22;50345;51.136;16.886;2023-08-30T02:12:54;15.40;99.90
6956;DHT22;50345;51.136;16.886;2023-08-30T02:15:22;15.50;99.90
6956;DHT22;50345;51.136;16.886;2023-08-30T02:17:50;15.50;99.90
6956;DHT22;50345;51.136;16.886;2023-08-30T02:20:16;15.50;99.90
6956;DHT22;50345;51.136;16.886;2023-08-30T02:22:41;15.40;99.90
6956;DHT22;50345;51.136;16.886;2023-08-30T02:25:07;15.50;99.90
6956;DHT22;50345;51.136;16.886;2023-08-30T02:27:33;15.50;99.90
6956;DHT22;50345;51.136;16.886;2023-08-30T02:30:00;15.40;99.90
6956;DHT22;50345;51.136;16.886;2023-08-30T02:32:26;15.40;99.90
6956;DHT22;50345;51.136;16.886;2023-08-30T02:34:52;15.40;99.90
6956;DHT22;50345;51.136;16.886;2023-08-30T02:37:18;15.40;99.90
6956;DHT22;50345;51.136;16.886;2023-08-30T02:39:44;15.50;99.90
6956;DHT22;50345;51.136;16.886;2023-08-30T02:42:10;15.50;99.90
6956;DHT22;50345;51.136;16.886;2023-08-30T02:44:35;15.50;99.90
6956;DHT22;50345;51.136;16.886;2023-08-30T02:47:01;15.50;99.90
6956;DHT22;50345;51.136;16.886;2023-08-30T02:49:27;15.50;99.90
6956;DHT22;50345;51.136;16.886;2023-08-30T02:51:52;15.50;99.90
6956;DHT22;50345;51.136;16.886;2023-08-30T02:54:18;15.50;99.90
6956;DHT22;50345;51.136;16.886;2023-08-30T02:56:44;15.60;99.90
6956;DHT22;50345;51.136;16.886;2023-08-30T02:59:10;15.50;99.90
6956;DHT22;50345;51.136;16.886;2023-08-30T03:01:36;15.50;99.90
6956;DHT22;50345;51.136;16.886;2023-08-30T03:04:04;15.50;99.90
6956;DHT22;50345;51.136;16.886;2023-08-30T03:06:30;15.60;99.90
6956;DHT22;50345;51.136;16.886;2023-08-30T03:08:55;15.60;99.90
6956;DHT22;50345;51.136;16.886;2023-08-30T03:11:21;15.60;99.90
6956;DHT22;50345;51.136;16.886;2023-08-30T03:13:47;15.60;99.90
6956;DHT22;50345;51.136;16.886;2023-08-30T03:16:16;15.50;99.90
6956;DHT22;50345;51.136;16.886;2023-08-30T03:18:42;15.50;99.90
6956;DHT22;50345;51.136;16.886;2023-08-30T03:21:08;15.50;99.90
6956;DHT22;50345;51.136;16.886;2023-08-30T03:23:34;15.50;99.90
6956;DHT22;50345;51.136;16.886;2023-08-30T03:26:10;15.60;99.90
6956;DHT22;50345;51.136;16.886;2023-08-30T03:28:36;15.60;99.90
6956;DHT22;50345;51.136;16.886;2023-08-30T03:31:10;15.60;99.90
6956;DHT22;50345;51.136;16.886;2023-08-30T03:33:35;15.60;99.90
6956;DHT22;50345;51.136;16.886;2023-08-30T03:36:01;15.60;99.90
6956;DHT22;50345;51.136;16.886;2023-08-30T03:38:27;15.60;99.90
6956;DHT22;50345;51.136;16.886;2023-08-30T03:40:54;15.50;99.90
6956;DHT22;50345;51.136;16.886;2023-08-30T03:43:19;15.50;99.90
6956;DHT22;50345;51.136;16.886;2023-08-30T03:45:46;15.50;99.90
6956;DHT22;50345;51.136;16.886;2023-08-30T03:48:11;15.50;99.90
6956;DHT22;50345;51.136;16.886;2023-08-30T03:50:37;15.50;99.90
6956;DHT22;50345;51.136;16.886;2023-08-30T03:53:02;15.50;99.90
6956;DHT22;50345;51.136;16.886;2023-08-30T03:55:28;15.50;99.90
6956;DHT22;50345;51.136;16.886;2023-08-30T03:57:53;15.50;99.90
6956;DHT22;50345;51.136;16.886;2023-08-30T04:00:19;15.40;99.90
6956;DHT22;50345;51.136;16.886;2023-08-30T04:02:45;15.40;99.90
6956;DHT22;50345;51.136;16.886;2023-08-30T04:05:10;15.40;99.90
6956;DHT22;50345;51.136;16.886;2023-08-30T04:07:36;15.40;99.90
6956;DHT22;50345;51.136;16.886;2023-08-30T04:10:02;15.40;99.90
6956;DHT22;50345;51.136;16.886;2023-08-30T04:12:31;15.40;99.90
6956;DHT22;50345;51.136;16.886;2023-08-30T04:14:57;15.40;99.90
6956;DHT22;50345;51.136;16.886;2023-08-30T04:17:22;15.40;99.90
6956;DHT22;50345;51.136;16.886;2023-08-30T04:19:51;15.40;99.90
6956;DHT22;50345;51.136;16.886;2023-08-30T04:22:17;15.40;99.90
6956;DHT22;50345;51.136;16.886;2023-08-30T04:24:43;15.40;99.90
6956;DHT22;50345;51.136;16.886;2023-08-30T04:27:08;15.40;99.90
6956;DHT22;50345;51.136;16.886;2023-08-30T04:29:34;15.40;99.90
6956;DHT22;50345;51.136;16.886;2023-08-30T04:31:59;15.50;99.90
6956;DHT22;50345;51.136;16.886;2023-08-30T04:34:26;15.50;99.90
6956;DHT22;50345;51.136;16.886;2023-08-30T04:36:51;15.50;99.90
6956;DHT22;50345;51.136;16.886;2023-08-30T04:39:17;15.50;99.90
6956;DHT22;50345;51.136;16.886;2023-08-30T04:41:42;15.50;99.90
6956;DHT22;50345;51.136;16.886;2023-08-30T04:44:08;15.50;99.90
6956;DHT22;50345;51.136;16.886;2023-08-30T04:46:33;15.40;99.90
6956;DHT22;50345;51.136;16.886;2023-08-30T04:48:59;15.40;99.90
6956;DHT22;50345;51.136;16.886;2023-08-30T04:51:25;15.40;99.90
6956;DHT22;50345;51.136;16.886;2023-08-30T04:53:50;15.40;99.90
6956;DHT22;50345;51.136;16.886;2023-08-30T04:56:16;15.50;99.90
6956;DHT22;50345;51.136;16.886;2023-08-30T04:58:43;15.60;99.90
6956;DHT22;50345;51.136;16.886;2023-08-30T05:01:09;15.60;99.90
6956;DHT22;50345;51.136;16.886;2023-08-30T05:03:36;15.60;99.90
6956;DHT22;50345;51.136;16.886;2023-08-30T05:06:02;15.70;99.90
6956;DHT22;50345;51.136;16.886;2023-08-30T05:08:28;15.70;99.90
6956;DHT22;50345;51.136;16.886;2023-08-30T05:10:54;15.70;99.90
6956;DHT22;50345;51.136;16.886;2023-08-30T05:13:20;15.70;99.90
6956;DHT22;50345;51.136;16.886;2023-08-30T05:15:45;15.80;99.90
6956;DHT22;50345;51.136;16.886;2023-08-30T05:18:11;15.90;99.90
6956;DHT22;50345;51.136;16.886;2023-08-30T05:20:37;15.80;99.90
6956;DHT22;50345;51.136;16.886;2023-08-30T05:23:02;15.90;99.90
6956;DHT22;50345;51.136;16.886;2023-08-30T05:25:28;15.90;99.90
6956;DHT22;50345;51.136;16.886;2023-08-30T05:27:54;15.90;99.90
6956;DHT22;50345;51.136;16.886;2023-08-30T05:30:19;15.90;99.90
6956;DHT22;50345;51.136;16.886;2023-08-30T05:32:45;16.00;99.90
6956;DHT22;50345;51.136;16.886;2023-08-30T05:35:11;16.00;99.90
6956;DHT22;50345;51.136;16.886;2023-08-30T05:37:36;16.00;99.90
6956;DHT22;50345;51.136;16.886;2023-08-30T05:40:02;16.00;99.90
6956;DHT22;50345;51.136;16.886;2023-08-30T05:42:28;16.00;99.90
6956;DHT22;50345;51.136;16.886;2023-08-30T05:44:54;16.10;99.90
6956;DHT22;50345;51.136;16.886;2023-08-30T05:47:20;16.10;99.90
6956;DHT22;50345;51.136;16.886;2023-08-30T05:49:46;16.10;99.90
6956;DHT22;50345;51.136;16.886;2023-08-30T05:52:12;16.20;99.90
6956;DHT22;50345;51.136;16.886;2023-08-30T05:54:37;16.40;99.90
6956;DHT22;50345;51.136;16.886;2023-08-30T05:57:03;16.50;99.90
6956;DHT22;50345;51.136;16.886;2023-08-30T09:56:32;17.70;99.90
6956;DHT22;50345;51.136;16.886;2023-08-30T09:58:58;17.70;99.90
6956;DHT22;50345;51.136;16.886;2023-08-30T10:01:26;17.70;99.90
6956;DHT22;50345;51.136;16.886;2023-08-30T10:06:18;18.70;99.90
6956;DHT22;50345;51.136;16.886;2023-08-30T10:08:45;18.80;99.90
6956;DHT22;50345;51.136;16.886;2023-08-30T10:11:14;19.00;99.90
6956;DHT22;50345;51.136;16.886;2023-08-30T10:13:42;19.00;99.90
6956;DHT22;50345;51.136;16.886;2023-08-30T10:16:10;18.90;99.90
6956;DHT22;50345;51.136;16.886;2023-08-30T10:18:37;18.80;99.90
6956;DHT22;50345;51.136;16.886;2023-08-30T10:21:06;18.70;99.90
6956;DHT22;50345;51.136;16.886;2023-08-30T10:23:34;18.50;99.90
6956;DHT22;50345;51.136;16.886;2023-08-30T10:26:03;18.30;99.90
6956;DHT22;50345;51.136;16.886;2023-08-30T10:28:31;18.20;99.90
6956;DHT22;50345;51.136;16.886;2023-08-30T10:30:58;18.00;99.90
6956;DHT22;50345;51.136;16.886;2023-08-30T10:33:23;17.90;99.90
6956;DHT22;50345;51.136;16.886;2023-08-30T10:35:51;17.80;99.90
6956;DHT22;50345;51.136;16.886;2023-08-30T10:38:27;17.80;99.90
6956;DHT22;50345;51.136;16.886;2023-08-30T10:40:54;17.90;99.90
6956;DHT22;50345;51.136;16.886;2023-08-30T10:43:30;18.00;99.90
6956;DHT22;50345;51.136;16.886;2023-08-30T10:46:04;18.10;99.90
6956;DHT22;50345;51.136;16.886;2023-08-30T10:51:02;19.10;99.90
6956;DHT22;50345;51.136;16.886;2023-08-30T10:53:30;19.30;99.90
6956;DHT22;50345;51.136;16.886;2023-08-30T11:01:11;20.30;99.90
6956;DHT22;50345;51.136;16.886;2023-08-30T11:03:41;20.10;99.90
6956;DHT22;50345;51.136;16.886;2023-08-30T11:06:07;19.90;99.90
6956;DHT22;50345;51.136;16.886;2023-08-30T11:08:33;19.70;99.90
6956;DHT22;50345;51.136;16.886;2023-08-30T11:11:03;19.40;99.90
6956;DHT22;50345;51.136;16.886;2023-08-30T11:13:30;19.20;99.90
6956;DHT22;50345;51.136;16.886;2023-08-30T11:16:00;19.00;99.90
6956;DHT22;50345;51.136;16.886;2023-08-30T11:18:26;18.90;99.90
6956;DHT22;50345;51.136;16.886;2023-08-30T11:21:02;18.70;99.90
6956;DHT22;50345;51.136;16.886;2023-08-30T11:23:28;18.60;99.90
6956;DHT22;50345;51.136;16.886;2023-08-30T11:25:54;18.40;99.90
6956;DHT22;50345;51.136;16.886;2023-08-30T11:28:24;18.30;99.90
6956;DHT22;50345;51.136;16.886;2023-08-30T11:30:52;18.20;99.90
6956;DHT22;50345;51.136;16.886;2023-08-30T11:33:18;18.10;99.90
6956;DHT22;50345;51.136;16.886;2023-08-30T11:35:49;18.20;99.90
6956;DHT22;50345;51.136;16.886;2023-08-30T11:38:15;18.30;99.90
6956;DHT22;50345;51.136;16.886;2023-08-30T11:45:34;19.70;99.90
6956;DHT22;50345;51.136;16.886;2023-08-30T11:48:00;19.80;99.90
6956;DHT22;50345;51.136;16.886;2023-08-30T11:50:27;20.00;99.90
6956;DHT22;50345;51.136;16.886;2023-08-30T11:52:53;20.00;99.90
6956;DHT22;50345;51.136;16.886;2023-08-30T11:55:20;19.90;99.90
6956;DHT22;50345;51.136;16.886;2023-08-30T11:57:49;19.70;99.90
6956;DHT22;50345;51.136;16.886;2023-08-30T12:00:18;19.50;99.90
6956;DHT22;50345;51.136;16.886;2023-08-30T12:02:46;19.30;99.90
6956;DHT22;50345;51.136;16.886;2023-08-30T12:05:14;19.10;99.90
6956;DHT22;50345;51.136;16.886;2023-08-30T12:07:41;18.90;99.90
6956;DHT22;50345;51.136;16.886;2023-08-30T12:10:08;18.70;99.90
6956;DHT22;50345;51.136;16.886;2023-08-30T12:12:33;18.60;99.90
6956;DHT22;50345;51.136;16.886;2023-08-30T12:15:09;18.60;99.90
6956;DHT22;50345;51.136;16.886;2023-08-30T12:17:35;18.60;99.90
6956;DHT22;50345;51.136;16.886;2023-08-30T12:20:01;18.80;99.90
6956;DHT22;50345;51.136;16.886;2023-08-30T12:22:41;19.00;99.90
6956;DHT22;50345;51.136;16.886;2023-08-30T12:25:36;19.10;99.90
6956;DHT22;50345;51.136;16.886;2023-08-30T12:28:02;19.20;99.90
6956;DHT22;50345;51.136;16.886;2023-08-30T12:30:29;19.20;99.90
6956;DHT22;50345;51.136;16.886;2023-08-30T12:33:00;19.20;99.90
6956;DHT22;50345;51.136;16.886;2023-08-30T12:35:28;19.20;99.90
6956;DHT22;50345;51.136;16.886;2023-08-30T12:37:54;19.10;99.90
6956;DHT22;50345;51.136;16.886;2023-08-30T12:40:20;19.10;99.90
6956;DHT22;50345;51.136;16.886;2023-08-30T12:42:46;18.90;99.90
6956;DHT22;50345;51.136;16.886;2023-08-30T12:45:11;18.90;99.90
6956;DHT22;50345;51.136;16.886;2023-08-30T12:47:37;19.00;99.90
6956;DHT22;50345;51.136;16.886;2023-08-30T12:50:03;19.10;99.90
6956;DHT22;50345;51.136;16.886;2023-08-30T12:52:29;19.00;99.90
6956;DHT22;50345;51.136;16.886;2023-08-30T12:54:54;18.90;99.90
6956;DHT22;50345;51.136;16.886;2023-08-30T12:57:20;18.80;99.90
6956;DHT22;50345;51.136;16.886;2023-08-30T12:59:45;18.90;99.90
6956;DHT22;50345;51.136;16.886;2023-08-30T13:02:12;18.90;99.90
6956;DHT22;50345;51.136;16.886;2023-08-30T13:04:37;18.80;99.90
6956;DHT22;50345;51.136;16.886;2023-08-30T13:07:03;18.90;99.90
6956;DHT22;50345;51.136;16.886;2023-08-30T13:09:29;19.10;99.90
6956;DHT22;50345;51.136;16.886;2023-08-30T13:11:54;19.50;99.90
6956;DHT22;50345;51.136;16.886;2023-08-30T13:14:20;19.60;99.90
6956;DHT22;50345;51.136;16.886;2023-08-30T13:16:45;19.60;99.90
6956;DHT22;50345;51.136;16.886;2023-08-30T13:19:11;19.50;99.90
6956;DHT22;50345;51.136;16.886;2023-08-30T13:21:36;19.30;99.90
6956;DHT22;50345;51.136;16.886;2023-08-30T13:24:02;19.20;99.90
6956;DHT22;50345;51.136;16.886;2023-08-30T13:26:28;19.00;99.90
6956;DHT22;50345;51.136;16.886;2023-08-30T13:28:54;18.90;99.90
6956;DHT22;50345;51.136;16.886;2023-08-30T13:31:19;18.70;99.90
6956;DHT22;50345;51.136;16.886;2023-08-30T13:33:45;18.90;99.90
6956;DHT22;50345;51.136;16.886;2023-08-30T13:36:10;19.30;99.90
6956;DHT22;50345;51.136;16.886;2023-08-30T13:41:02;20.20;99.90
6956;DHT22;50345;51.136;16.886;2023-08-30T13:43:29;20.40;99.90
6956;DHT22;50345;51.136;16.886;2023-08-30T13:45:59;20.40;99.90
6956;DHT22;50345;51.136;16.886;2023-08-30T13:48:25;20.30;99.90
6956;DHT22;50345;51.136;16.886;2023-08-30T13:50:50;20.20;99.90
6956;DHT22;50345;51.136;16.886;2023-08-30T13:53:16;20.10;99.90
6956;DHT22;50345;51.136;16.886;2023-08-30T13:55:45;19.90;99.90
6956;DHT22;50345;51.136;16.886;2023-08-30T13:58:11;19.80;99.90
6956;DHT22;50345;51.136;16.886;2023-08-30T14:00:37;20.00;99.90
6956;DHT22;50345;51.136;16.886;2023-08-30T14:05:28;20.50;99.90
6956;DHT22;50345;51.136;16.886;2023-08-30T14:07:54;20.50;99.90
6956;DHT22;50345;51.136;16.886;2023-08-30T14:10:19;20.50;99.90
6956;DHT22;50345;51.136;16.886;2023-08-30T14:12:45;20.50;99.90
6956;DHT22;50345;51.136;16.886;2023-08-30T14:15:10;20.30;99.90
6956;DHT22;50345;51.136;16.886;2023-08-30T14:17:36;20.20;99.90
6956;DHT22;50345;51.136;16.886;2023-08-30T14:20:02;20.10;99.90
6956;DHT22;50345;51.136;16.886;2023-08-30T14:22:28;20.00;99.90
6956;DHT22;50345;51.136;16.886;2023-08-30T14:24:53;19.80;99.90
6956;DHT22;50345;51.136;16.886;2023-08-30T14:27:19;19.60;99.90
6956;DHT22;50345;51.136;16.886;2023-08-30T14:29:44;19.50;99.90
6956;DHT22;50345;51.136;16.886;2023-08-30T14:32:10;19.40;99.90
6956;DHT22;50345;51.136;16.886;2023-08-30T14:34:35;19.20;99.90
6956;DHT22;50345;51.136;16.886;2023-08-30T14:37:01;19.10;99.90
6956;DHT22;50345;51.136;16.886;2023-08-30T14:39:27;19.00;99.90
6956;DHT22;50345;51.136;16.886;2023-08-30T14:41:52;19.00;99.90
6956;DHT22;50345;51.136;16.886;2023-08-30T14:44:18;18.80;99.90
6956;DHT22;50345;51.136;16.886;2023-08-30T14:46:45;18.70;99.90
6956;DHT22;50345;51.136;16.886;2023-08-30T14:49:11;18.50;99.90
6956;DHT22;50345;51.136;16.886;2023-08-30T14:51:36;18.40;99.90
6956;DHT22;50345;51.136;16.886;2023-08-30T14:54:02;18.30;99.90
6956;DHT22;50345;51.136;16.886;2023-08-30T14:56:27;18.20;99.90
6956;DHT22;50345;51.136;16.886;2023-08-30T14:58:53;18.10;99.90
6956;DHT22;50345;51.136;16.886;2023-08-30T15:01:19;18.00;99.90
6956;DHT22;50345;51.136;16.886;2023-08-30T15:03:44;18.00;99.90
6956;DHT22;50345;51.136;16.886;2023-08-30T15:06:10;17.90;99.90
6956;DHT22;50345;51.136;16.886;2023-08-30T15:08:35;17.90;99.90
6956;DHT22;50345;51.136;16.886;2023-08-30T15:11:01;17.90;99.90
6956;DHT22;50345;51.136;16.886;2023-08-30T15:13:28;17.90;99.90
6956;DHT22;50345;51.136;16.886;2023-08-30T15:15:55;18.00;99.90
6956;DHT22;50345;51.136;16.886;2023-08-30T15:18:20;18.10;99.90
6956;DHT22;50345;51.136;16.886;2023-08-30T15:25:46;18.60;99.90
6956;DHT22;50345;51.136;16.886;2023-08-30T15:28:12;18.60;99.90
6956;DHT22;50345;51.136;16.886;2023-08-30T15:30:37;18.70;99.90
6956;DHT22;50345;51.136;16.886;2023-08-30T15:33:05;18.80;99.90
6956;DHT22;50345;51.136;16.886;2023-08-30T15:35:39;19.00;99.90
6956;DHT22;50345;51.136;16.886;2023-08-30T15:38:05;19.00;99.90
6956;DHT22;50345;51.136;16.886;2023-08-30T15:40:31;19.00;99.90
6956;DHT22;50345;51.136;16.886;2023-08-30T15:42:58;19.00;99.90
6956;DHT22;50345;51.136;16.886;2023-08-30T15:45:24;19.00;99.90
6956;DHT22;50345;51.136;16.886;2023-08-30T15:47:49;19.00;99.90
6956;DHT22;50345;51.136;16.886;2023-08-30T15:50:15;19.00;99.90
6956;DHT22;50345;51.136;16.886;2023-08-30T15:52:41;18.90;99.90
6956;DHT22;50345;51.136;16.886;2023-08-30T15:55:06;18.80;99.90
6956;DHT22;50345;51.136;16.886;2023-08-30T15:57:32;18.70;99.90
6956;DHT22;50345;51.136;16.886;2023-08-30T15:59:57;18.60;99.90
6956;DHT22;50345;51.136;16.886;2023-08-30T16:02:23;18.50;99.90
6956;DHT22;50345;51.136;16.886;2023-08-30T16:04:49;18.40;99.90
6956;DHT22;50345;51.136;16.886;2023-08-30T16:07:14;18.40;99.90
6956;DHT22;50345;51.136;16.886;2023-08-30T16:09:40;18.30;99.90
6956;DHT22;50345;51.136;16.886;2023-08-30T16:12:06;18.30;99.90
6956;DHT22;50345;51.136;16.886;2023-08-30T16:14:32;18.20;99.90
6956;DHT22;50345;51.136;16.886;2023-08-30T16:16:57;18.20;99.90
6956;DHT22;50345;51.136;16.886;2023-08-30T16:19:23;18.10;99.90
6956;DHT22;50345;51.136;16.886;2023-08-30T16:21:50;18.10;99.90
6956;DHT22;50345;51.136;16.886;2023-08-30T16:24:20;18.00;99.90
6956;DHT22;50345;51.136;16.886;2023-08-30T16:26:45;17.90;99.90
6956;DHT22;50345;51.136;16.886;2023-08-30T16:29:12;17.90;99.90
6956;DHT22;50345;51.136;16.886;2023-08-30T16:31:37;17.90;99.90
6956;DHT22;50345;51.136;16.886;2023-08-30T16:34:03;17.70;99.90
6956;DHT22;50345;51.136;16.886;2023-08-30T16:36:28;17.70;99.90
6956;DHT22;50345;51.136;16.886;2023-08-30T16:38:54;17.60;99.90
6956;DHT22;50345;51.136;16.886;2023-08-30T16:41:20;17.60;99.90
6956;DHT22;50345;51.136;16.886;2023-08-30T16:43:45;17.50;99.90
6956;DHT22;50345;51.136;16.886;2023-08-30T16:46:11;17.50;99.90
6956;DHT22;50345;51.136;16.886;2023-08-30T16:48:36;17.40;99.90
6956;DHT22;50345;51.136;16.886;2023-08-30T16:51:02;17.40;99.90
6956;DHT22;50345;51.136;16.886;2023-08-30T16:53:31;17.30;99.90
6956;DHT22;50345;51.136;16.886;2023-08-30T16:56:00;17.30;99.90
6956;DHT22;50345;51.136;16.886;2023-08-30T16:58:26;17.20;99.90
6956;DHT22;50345;51.136;16.886;2023-08-30T17:00:52;17.20;99.90
6956;DHT22;50345;51.136;16.886;2023-08-30T17:03:18;17.20;99.90
6956;DHT22;50345;51.136;16.886;2023-08-30T17:05:43;17.10;99.90
6956;DHT22;50345;51.136;16.886;2023-08-30T17:08:09;17.10;99.90
6956;DHT22;50345;51.136;16.886;2023-08-30T17:10:34;17.10;99.90
6956;DHT22;50345;51.136;16.886;2023-08-30T17:13:00;17.10;99.90
6956;DHT22;50345;51.136;16.886;2023-08-30T17:15:26;17.00;99.90
6956;DHT22;50345;51.136;16.886;2023-08-30T17:17:52;17.00;99.90
6956;DHT22;50345;51.136;16.886;2023-08-30T17:20:18;17.00;99.90
6956;DHT22;50345;51.136;16.886;2023-08-30T17:22:44;17.00;99.90
6956;DHT22;50345;51.136;16.886;2023-08-30T17:25:09;16.90;99.90
6956;DHT22;50345;51.136;16.886;2023-08-30T17:27:35;16.90;99.90
6956;DHT22;50345;51.136;16.886;2023-08-30T17:30:02;16.90;99.90
6956;DHT22;50345;51.136;16.886;2023-08-30T17:32:28;16.90;99.90
6956;DHT22;50345;51.136;16.886;2023-08-30T17:34:54;16.90;99.90
6956;DHT22;50345;51.136;16.886;2023-08-30T17:37:20;16.80;99.90
6956;DHT22;50345;51.136;16.886;2023-08-30T17:39:45;16.80;99.90
6956;DHT22;50345;51.136;16.886;2023-08-30T17:42:11;16.80;99.90
6956;DHT22;50345;51.136;16.886;2023-08-30T17:44:36;16.70;99.90
6956;DHT22;50345;51.136;16.886;2023-08-30T17:47:02;16.70;99.90
6956;DHT22;50345;51.136;16.886;2023-08-30T17:49:28;16.70;99.90
6956;DHT22;50345;51.136;16.886;2023-08-30T17:51:54;16.70;99.90
6956;DHT22;50345;51.136;16.886;2023-08-30T17:54:19;16.70;99.90
6956;DHT22;50345;51.136;16.886;2023-08-30T17:56:45;16.70;99.90
6956;DHT22;50345;51.136;16.886;2023-08-30T17:59:12;16.60;99.90
6956;DHT22;50345;51.136;16.886;2023-08-30T18:01:37;16.60;99.90
6956;DHT22;50345;51.136;16.886;2023-08-30T18:04:03;16.60;99.90
6956;DHT22;50345;51.136;16.886;2023-08-30T18:06:29;16.60;99.90
6956;DHT22;50345;51.136;16.886;2023-08-30T18:08:56;16.60;99.90
6956;DHT22;50345;51.136;16.886;2023-08-30T18:11:23;16.60;99.90
6956;DHT22;50345;51.136;16.886;2023-08-30T18:13:49;16.60;99.90
6956;DHT22;50345;51.136;16.886;2023-08-30T18:16:17;16.50;99.90
6956;DHT22;50345;51.136;16.886;2023-08-30T18:18:43;16.50;99.90
6956;DHT22;50345;51.136;16.886;2023-08-30T18:21:10;16.50;99.90
6956;DHT22;50345;51.136;16.886;2023-08-30T18:23:41;16.50;99.90
6956;DHT22;50345;51.136;16.886;2023-08-30T18:26:06;16.50;99.90
6956;DHT22;50345;51.136;16.886;2023-08-30T18:28:32;16.50;99.90
6956;DHT22;50345;51.136;16.886;2023-08-30T18:30:58;16.50;99.90
6956;DHT22;50345;51.136;16.886;2023-08-30T18:33:23;16.50;99.90
6956;DHT22;50345;51.136;16.886;2023-08-30T18:35:49;16.50;99.90
6956;DHT22;50345;51.136;16.886;2023-08-30T18:38:15;16.40;99.90
6956;DHT22;50345;51.136;16.886;2023-08-30T18:40:40;16.40;99.90
6956;DHT22;50345;51.136;16.886;2023-08-30T18:43:06;16.40;99.90
6956;DHT22;50345;51.136;16.886;2023-08-30T18:45:34;16.50;99.90
6956;DHT22;50345;51.136;16.886;2023-08-30T18:48:07;16.40;99.90
6956;DHT22;50345;51.136;16.886;2023-08-30T18:50:33;16.40;99.90
6956;DHT22;50345;51.136;16.886;2023-08-30T18:52:58;16.40;99.90
6956;DHT22;50345;51.136;16.886;2023-08-30T18:55:24;16.40;99.90
6956;DHT22;50345;51.136;16.886;2023-08-30T18:57:50;16.40;99.90
6956;DHT22;50345;51.136;16.886;2023-08-30T19:00:15;16.40;99.90
6956;DHT22;50345;51.136;16.886;2023-08-30T19:02:41;16.50;99.90
6956;DHT22;50345;51.136;16.886;2023-08-30T19:05:07;16.50;99.90
6956;DHT22;50345;51.136;16.886;2023-08-30T19:07:33;16.50;99.90
6956;DHT22;50345;51.136;16.886;2023-08-30T19:09:58;16.40;99.90
6956;DHT22;50345;51.136;16.886;2023-08-30T19:12:24;16.40;99.90
6956;DHT22;50345;51.136;16.886;2023-08-30T19:14:49;16.40;99.90
6956;DHT22;50345;51.136;16.886;2023-08-30T19:17:15;16.40;99.90
6956;DHT22;50345;51.136;16.886;2023-08-30T19:19:40;16.40;99.90
6956;DHT22;50345;51.136;16.886;2023-08-30T19:22:06;16.40;99.90
6956;DHT22;50345;51.136;16.886;2023-08-30T19:24:31;16.30;99.90
6956;DHT22;50345;51.136;16.886;2023-08-30T19:27:03;16.30;99.90
6956;DHT22;50345;51.136;16.886;2023-08-30T19:29:28;16.30;99.90
6956;DHT22;50345;51.136;16.886;2023-08-30T19:31:54;16.30;99.90
6956;DHT22;50345;51.136;16.886;2023-08-30T19:34:19;16.30;99.90
6956;DHT22;50345;51.136;16.886;2023-08-30T19:36:46;16.30;99.90
6956;DHT22;50345;51.136;16.886;2023-08-30T19:39:12;16.30;99.90
6956;DHT22;50345;51.136;16.886;2023-08-30T19:41:39;16.30;99.90
6956;DHT22;50345;51.136;16.886;2023-08-30T19:44:04;16.30;99.90
6956;DHT22;50345;51.136;16.886;2023-08-30T19:46:30;16.30;99.90
6956;DHT22;50345;51.136;16.886;2023-08-30T19:48:55;16.30;99.90
6956;DHT22;50345;51.136;16.886;2023-08-30T19:51:22;16.30;99.90
6956;DHT22;50345;51.136;16.886;2023-08-30T19:53:49;16.30;99.90